Time;durP1;ratioP1;P1;durP2;ratioP2;P2;SDS_P1;SDS_P2;PMS_P1;PMS_P2;Temp;Humidity;BMP_temperature;BMP_pressure;BME280_temperature;BME280_humidity;BME280_pressure;Samples;Min_cycle;Max_cycle;Signal;HPM_P1;HPM_P2
2023/12/25 00:02:05;;;;;;;0.80;0.70;;;;;;;16.06;50.22;92621.25;4999940;28;20087;-87
2023/12/25 00:04:31;;;;;;;1.13;0.60;;;;;;;15.97;50.68;92616.94;5026141;28;20041;-88
2023/12/25 00:06:56;;;;;;;1.52;1.15;;;;;;;16.04;50.44;92608.16;5041590;28;20059;-87
2023/12/25 00:09:22;;;;;;;0.70;0.60;;;;;;;16.01;50.47;92619.38;5018806;28;20135;-87
2023/12/25 00:11:47;;;;;;;0.65;0.40;;;;;;;16.01;50.07;92611.19;5016023;28;20052;-87
2023/12/25 00:14:13;;;;;;;1.13;0.60;;;;;;;15.94;50.76;92604.31;5035681;28;20056;-88
2023/12/25 00:16:40;;;;;;;0.73;0.50;;;;;;;15.95;50.52;92592.16;4993816;28;20052;-87
2023/12/25 00:19:07;;;;;;;1.20;0.55;;;;;;;16.00;50.51;92601.53;5025670;28;20053;-87
2023/12/25 00:21:32;;;;;;;0.90;0.52;;;;;;;15.98;50.25;92595.84;5026998;28;20040;-87
2023/12/25 00:23:58;;;;;;;0.60;0.50;;;;;;;16.00;50.67;92594.09;5008904;28;20037;-88
2023/12/25 00:26:23;;;;;;;0.75;0.40;;;;;;;15.99;50.66;92603.53;5025085;28;20030;-88
2023/12/25 00:28:49;;;;;;;1.25;0.50;;;;;;;15.99;50.25;92600.78;5070988;28;20044;-89
2023/12/25 00:31:14;;;;;;;0.68;0.50;;;;;;;16.01;50.90;92611.94;5029743;28;20048;-90
2023/12/25 00:33:40;;;;;;;0.88;0.73;;;;;;;15.97;50.21;92619.66;5028850;28;20143;-87
2023/12/25 00:36:05;;;;;;;0.52;0.45;;;;;;;15.99;50.55;92619.88;5028258;28;20041;-88
2023/12/25 00:38:31;;;;;;;0.95;0.60;;;;;;;16.10;50.46;92616.25;5008846;28;20156;-88
2023/12/25 00:40:56;;;;;;;0.77;0.40;;;;;;;16.09;50.12;92614.78;5024087;28;20048;-88
2023/12/25 00:43:22;;;;;;;1.00;0.55;;;;;;;16.02;50.49;92620.84;5014390;28;20049;-88
2023/12/25 00:45:47;;;;;;;0.47;0.47;;;;;;;16.04;50.43;92623.75;5017120;28;20045;-88
2023/12/25 00:48:13;;;;;;;0.70;0.60;;;;;;;16.02;50.60;92618.81;5020658;28;20049;-87
2023/12/25 00:50:38;;;;;;;1.02;0.70;;;;;;;16.00;50.26;92623.34;5011305;28;20037;-88
2023/12/25 00:53:05;;;;;;;1.00;0.50;;;;;;;16.05;50.62;92627.97;5005629;28;20307;-90
2023/12/25 00:55:31;;;;;;;0.93;0.70;;;;;;;16.00;50.65;92624.06;5033915;28;20056;-88
2023/12/25 00:57:57;;;;;;;0.65;0.43;;;;;;;16.03;50.36;92625.75;5032749;28;20041;-87
2023/12/25 01:00:22;;;;;;;0.98;0.60;;;;;;;16.00;50.07;92623.34;5060361;28;20515;-88
2023/12/25 01:02:48;;;;;;;0.68;0.45;;;;;;;16.05;50.20;92631.44;5035709;28;20037;-88
2023/12/25 01:05:13;;;;;;;0.60;0.43;;;;;;;16.01;50.44;92628.28;5022234;28;20064;-89
2023/12/25 01:07:40;;;;;;;0.70;0.52;;;;;;;16.03;50.38;92630.47;5019121;28;20079;-87
2023/12/25 01:10:06;;;;;;;2.08;0.50;;;;;;;16.03;50.63;92625.75;5024536;28;20037;-87
2023/12/25 01:12:32;;;;;;;0.93;0.50;;;;;;;16.10;50.17;92649.72;5011857;28;20807;-88
2023/12/25 01:14:58;;;;;;;0.60;0.35;;;;;;;16.08;50.41;92662.38;5018767;28;20114;-87
2023/12/25 01:17:24;;;;;;;0.50;0.40;;;;;;;16.01;50.33;92669.16;5011263;28;20083;-88
2023/12/25 01:19:51;;;;;;;0.98;0.50;;;;;;;16.02;50.36;92656.28;5044949;28;20052;-87
2023/12/25 01:22:16;;;;;;;0.88;0.40;;;;;;;16.07;50.38;92686.19;5041169;28;20415;-88
2023/12/25 01:24:42;;;;;;;0.70;0.55;;;;;;;16.00;50.27;92664.97;5056499;28;20050;-88
2023/12/25 01:27:07;;;;;;;0.70;0.50;;;;;;;15.97;50.32;92662.53;5045944;28;20458;-90
2023/12/25 01:29:33;;;;;;;0.52;0.52;;;;;;;15.95;50.49;92670.47;5008096;28;20720;-88
2023/12/25 01:31:58;;;;;;;1.30;0.50;;;;;;;16.06;50.37;92681.97;5032033;28;20076;-87
2023/12/25 01:34:23;;;;;;;0.52;0.47;;;;;;;16.03;50.69;92676.81;4991667;28;20408;-87
2023/12/25 01:36:49;;;;;;;1.98;0.40;;;;;;;16.00;50.00;92675.13;5019397;28;20064;-87
2023/12/25 01:39:14;;;;;;;0.77;0.50;;;;;;;16.06;50.53;92690.16;5006622;28;20045;-88
2023/12/25 01:41:40;;;;;;;1.55;0.50;;;;;;;16.04;50.38;92697.38;5049168;28;20070;-87
2023/12/25 01:44:05;;;;;;;1.58;0.30;;;;;;;16.05;50.15;92696.13;5027323;28;20411;-87
2023/12/25 01:46:31;;;;;;;0.35;0.30;;;;;;;16.00;50.44;92692.22;5009235;28;20037;-87
2023/12/25 01:48:56;;;;;;;0.93;0.30;;;;;;;16.01;50.38;92706.59;5020938;28;20079;-88
2023/12/25 01:51:22;;;;;;;0.95;0.50;;;;;;;15.97;50.84;92701.44;5014408;28;20056;-87
2023/12/25 01:53:48;;;;;;;0.50;0.40;;;;;;;15.97;50.49;92715.06;5039914;28;20045;-89
2023/12/25 01:56:14;;;;;;;0.70;0.57;;;;;;;16.03;50.40;92709.53;5035254;28;20037;-87
2023/12/25 01:58:39;;;;;;;0.70;0.43;;;;;;;16.00;50.57;92707.84;5027786;28;20068;-89
2023/12/25 02:01:05;;;;;;;0.65;0.30;;;;;;;16.05;50.30;92718.66;5026305;28;20531;-87
2023/12/25 02:03:30;;;;;;;0.70;0.40;;;;;;;16.00;50.59;92721.47;5023836;28;20045;-86
2023/12/25 02:05:56;;;;;;;0.75;0.55;;;;;;;16.05;50.68;92715.19;5031362;28;20059;-88
2023/12/25 02:08:21;;;;;;;0.95;0.45;;;;;;;16.08;50.70;92704.03;5023329;28;20041;-87
2023/12/25 02:10:46;;;;;;;0.40;0.32;;;;;;;16.01;50.37;92709.31;5040027;28;21017;-87
2023/12/25 02:13:12;;;;;;;1.13;0.65;;;;;;;16.05;50.81;92709.75;5054065;28;20056;-87
2023/12/25 02:15:39;;;;;;;0.80;0.50;;;;;;;16.06;50.32;92692.88;5040247;28;20068;-87
2023/12/25 02:18:04;;;;;;;0.77;0.60;;;;;;;16.01;50.74;92696.44;5034090;28;20091;-88
2023/12/25 02:20:30;;;;;;;0.55;0.43;;;;;;;16.03;50.77;92714.97;5011405;28;20643;-87
2023/12/25 02:22:55;;;;;;;0.73;0.57;;;;;;;16.08;50.27;92712.19;5011305;28;20049;-88
2023/12/25 02:25:32;;;;;;;0.75;0.55;;;;;;;16.00;50.75;92711.31;4995234;28;20083;-88
2023/12/25 02:27:57;;;;;;;0.80;0.50;;;;;;;16.03;50.42;92728.59;5011180;28;20071;-87
2023/12/25 02:30:23;;;;;;;0.32;0.32;;;;;;;16.03;50.60;92723.16;5035483;28;20040;-88
2023/12/25 02:32:49;;;;;;;0.82;0.40;;;;;;;16.06;50.49;92711.97;5030975;28;20048;-87
2023/12/25 02:35:14;;;;;;;0.60;0.50;;;;;;;15.98;50.81;92724.72;5030137;28;20060;-91
2023/12/25 02:37:40;;;;;;;1.30;0.40;;;;;;;16.08;50.34;92725.81;5043049;28;20076;-87
2023/12/25 02:40:06;;;;;;;0.95;0.50;;;;;;;16.07;50.55;92721.63;5043245;28;20482;-88
2023/12/25 02:42:31;;;;;;;1.05;0.50;;;;;;;16.07;50.42;92727.06;5024727;28;20053;-88
2023/12/25 02:44:57;;;;;;;0.80;0.60;;;;;;;16.07;50.35;92729.06;5030252;28;20037;-88
2023/12/25 02:47:22;;;;;;;0.65;0.30;;;;;;;16.10;50.46;92731.50;5043450;28;20033;-89
2023/12/25 02:49:48;;;;;;;0.57;0.57;;;;;;;16.05;50.53;92735.03;5003155;28;20033;-87
2023/12/25 02:52:13;;;;;;;0.43;0.40;;;;;;;16.10;50.38;92731.50;5027147;28;20401;-88
2023/12/25 02:54:39;;;;;;;0.60;0.47;;;;;;;16.01;50.72;92728.41;5030244;28;20124;-88
2023/12/25 02:57:04;;;;;;;0.90;0.47;;;;;;;16.03;50.67;92736.78;5033129;28;20044;-89
2023/12/25 02:59:30;;;;;;;0.30;0.30;;;;;;;16.06;50.55;92735.75;5032286;28;20377;-87
2023/12/25 03:01:58;;;;;;;0.75;0.50;;;;;;;16.04;50.37;92730.09;5030099;28;20036;-88
2023/12/25 03:04:23;;;;;;;0.60;0.30;;;;;;;15.99;50.63;92731.63;5030865;28;20037;-87
2023/12/25 03:06:49;;;;;;;0.90;0.50;;;;;;;16.08;50.68;92742.19;5040588;28;20493;-87
2023/12/25 03:09:14;;;;;;;0.63;0.50;;;;;;;16.05;50.65;92742.47;5023928;28;20041;-88
2023/12/25 03:11:40;;;;;;;0.45;0.40;;;;;;;16.02;50.75;92743.50;5030233;28;20454;-88
2023/12/25 03:14:05;;;;;;;0.40;0.40;;;;;;;16.12;50.33;92741.91;5013894;28;20041;-88
2023/12/25 03:16:31;;;;;;;2.80;0.43;;;;;;;16.00;50.89;92737.84;5012649;28;20171;-87
2023/12/25 03:18:56;;;;;;;1.65;0.55;;;;;;;16.08;50.39;92741.44;5006802;28;20056;-92
2023/12/25 03:21:22;;;;;;;0.82;0.50;;;;;;;16.10;50.27;92739.69;5012628;28;20041;-88
2023/12/25 03:23:47;;;;;;;0.52;0.30;;;;;;;16.07;50.57;92732.53;5040053;28;20052;-87
2023/12/25 03:26:13;;;;;;;0.55;0.43;;;;;;;16.05;50.57;92721.41;5009246;28;20132;-90
2023/12/25 03:28:38;;;;;;;0.40;0.40;;;;;;;16.13;50.16;92732.47;5023944;28;20144;-88
2023/12/25 03:31:04;;;;;;;0.38;0.38;;;;;;;16.12;50.30;92736.47;5009387;28;20821;-88
2023/12/25 03:33:29;;;;;;;0.68;0.50;;;;;;;16.07;50.52;92729.81;5021121;28;20036;-87
2023/12/25 03:35:55;;;;;;;0.25;0.25;;;;;;;16.09;50.48;92737.47;5046614;28;20045;-87
2023/12/25 03:38:20;;;;;;;0.50;0.50;;;;;;;16.01;50.49;92745.50;5026829;28;20030;-89
2023/12/25 03:40:46;;;;;;;0.40;0.30;;;;;;;16.06;50.74;92749.41;5029868;28;20088;-88
2023/12/25 03:43:11;;;;;;;0.40;0.28;;;;;;;16.07;50.83;92753.59;5025889;28;20139;-87
2023/12/25 03:45:36;;;;;;;0.40;0.40;;;;;;;16.03;50.61;92753.88;5023151;28;20082;-88
2023/12/25 03:48:03;;;;;;;0.25;0.25;;;;;;;15.99;50.79;92753.44;5037154;28;20425;-87
2023/12/25 03:50:28;;;;;;;0.30;0.25;;;;;;;16.01;51.04;92761.84;5017069;28;20053;-90
2023/12/25 03:52:54;;;;;;;0.40;0.40;;;;;;;16.07;50.60;92761.78;5012628;28;20083;-87
2023/12/25 03:55:19;;;;;;;0.60;0.47;;;;;;;16.04;50.83;92760.81;5028322;28;20127;-88
2023/12/25 03:57:44;;;;;;;0.50;0.35;;;;;;;16.03;50.64;92755.88;5046849;28;20044;-88
2023/12/25 04:00:11;;;;;;;0.98;0.55;;;;;;;16.06;50.15;92768.47;5033211;28;20416;-87
2023/12/25 04:02:36;;;;;;;0.38;0.30;;;;;;;16.00;50.40;92778.72;5030691;28;20036;-89
2023/12/25 04:05:02;;;;;;;0.60;0.40;;;;;;;15.99;50.89;92763.63;5044507;28;20037;-87
2023/12/25 04:07:28;;;;;;;0.70;0.55;;;;;;;16.02;50.62;92757.84;5041772;28;20033;-87
2023/12/25 04:09:53;;;;;;;0.50;0.40;;;;;;;16.03;50.58;92761.31;5028527;28;20037;-88
2023/12/25 04:12:19;;;;;;;0.30;0.30;;;;;;;16.10;50.55;92766.22;5009883;28;20677;-90
2023/12/25 04:14:44;;;;;;;0.90;0.50;;;;;;;16.05;50.77;92767.00;5025046;28;20135;-88
2023/12/25 04:17:10;;;;;;;0.63;0.50;;;;;;;16.05;50.47;92767.75;5044722;28;20045;-88
2023/12/25 04:19:35;;;;;;;1.23;0.35;;;;;;;16.08;50.60;92769.44;5008939;28;20076;-88
2023/12/25 04:22:01;;;;;;;0.60;0.40;;;;;;;16.11;50.43;92764.97;5028764;28;20138;-87
2023/12/25 04:24:26;;;;;;;0.22;0.22;;;;;;;16.10;50.58;92775.13;5040881;28;20049;-88
2023/12/25 04:26:51;;;;;;;0.55;0.40;;;;;;;16.03;50.42;92772.22;5009173;28;20047;-87
2023/12/25 04:29:17;;;;;;;0.50;0.30;;;;;;;16.07;50.35;92764.50;5021054;28;20700;-87
2023/12/25 04:31:42;;;;;;;0.40;0.40;;;;;;;16.09;50.58;92770.19;5028532;28;20044;-87
2023/12/25 04:34:08;;;;;;;0.57;0.40;;;;;;;16.10;50.28;92785.31;5030661;28;20045;-90
2023/12/25 04:36:33;;;;;;;0.90;0.38;;;;;;;16.09;50.57;92781.84;5045085;28;20147;-90
2023/12/25 04:38:59;;;;;;;0.70;0.30;;;;;;;16.06;50.48;92779.38;5027699;28;20041;-87
2023/12/25 04:41:24;;;;;;;0.57;0.40;;;;;;;15.99;50.81;92777.97;5044917;28;20040;-87
2023/12/25 04:43:50;;;;;;;1.33;0.85;;;;;;;16.09;50.76;92762.00;5028426;28;20052;-88
2023/12/25 04:46:17;;;;;;;1.67;1.13;;;;;;;16.10;50.68;92756.06;5030797;28;20036;-89
2023/12/25 04:48:42;;;;;;;2.10;1.52;;;;;;;16.05;50.72;92756.84;5026238;28;20122;-87
2023/12/25 04:51:08;;;;;;;4.80;2.45;;;;;;;16.07;50.63;92751.63;5027355;28;20041;-90
2023/12/25 04:53:34;;;;;;;2.92;2.08;;;;;;;16.07;50.76;92759.06;5026064;28;20585;-88
2023/12/25 04:56:00;;;;;;;2.47;0.85;;;;;;;16.01;50.91;92766.56;5029399;28;20713;-87
2023/12/25 04:58:25;;;;;;;4.43;2.50;;;;;;;16.04;50.89;92757.34;5041434;28;20048;-87
2023/12/25 05:00:51;;;;;;;4.32;2.65;;;;;;;16.05;50.55;92745.94;5005836;28;20049;-88
2023/12/25 05:03:17;;;;;;;2.42;1.42;;;;;;;16.10;50.76;92758.78;5007395;28;20090;-88
2023/12/25 05:05:42;;;;;;;2.97;1.67;;;;;;;16.03;50.69;92772.22;5025875;28;20045;-89
2023/12/25 05:08:08;;;;;;;8.55;4.63;;;;;;;16.11;50.66;92775.88;5009187;28;20041;-88
2023/12/25 05:10:33;;;;;;;3.53;2.47;;;;;;;16.05;50.85;92777.91;5041675;28;20048;-88
2023/12/25 05:12:59;;;;;;;5.65;3.00;;;;;;;15.96;50.72;92764.63;4992448;28;20041;-89
2023/12/25 05:15:24;;;;;;;2.10;1.13;;;;;;;15.96;51.25;92759.19;5013569;28;20037;-89
2023/12/25 05:17:50;;;;;;;3.97;2.22;;;;;;;16.06;50.83;92757.56;5009217;28;20076;-88
2023/12/25 05:20:15;;;;;;;8.50;2.85;;;;;;;16.08;50.83;92761.28;5022429;28;20038;-87
2023/12/25 05:22:40;;;;;;;3.75;2.08;;;;;;;16.07;50.74;92767.22;5011274;28;20041;-87
2023/12/25 05:25:06;;;;;;;4.82;2.70;;;;;;;16.07;50.79;92751.63;5025672;28;20045;-88
2023/12/25 05:27:31;;;;;;;8.18;3.08;;;;;;;16.06;50.92;92754.84;5001217;28;20033;-87
2023/12/25 05:29:57;;;;;;;5.75;1.88;;;;;;;15.95;50.75;92761.16;5031955;28;20972;-89
2023/12/25 05:32:22;;;;;;;5.07;1.88;;;;;;;15.93;50.84;92750.03;5013362;28;20064;-87
2023/12/25 05:34:48;;;;;;;4.10;1.25;;;;;;;16.01;50.90;92748.22;5015264;28;20044;-87
2023/12/25 05:37:13;;;;;;;2.08;1.50;;;;;;;16.05;50.89;92759.56;5012989;28;20038;-87
2023/12/25 05:39:39;;;;;;;2.95;1.85;;;;;;;16.07;50.75;92762.53;5060225;28;20059;-86
2023/12/25 05:42:04;;;;;;;3.35;2.17;;;;;;;16.07;50.49;92765.25;5058783;28;20507;-87
2023/12/25 05:44:30;;;;;;;2.78;1.40;;;;;;;16.03;50.78;92762.06;5023259;28;20071;-88
2023/12/25 05:46:55;;;;;;;5.15;2.42;;;;;;;16.01;50.70;92756.41;5046984;28;20060;-87
2023/12/25 05:49:21;;;;;;;4.07;2.20;;;;;;;16.03;50.70;92751.16;5021466;28;20059;-87
2023/12/25 05:51:47;;;;;;;3.95;1.90;;;;;;;16.00;50.91;92749.47;5030288;28;20500;-88
2023/12/25 05:54:12;;;;;;;4.82;2.85;;;;;;;16.02;50.78;92766.03;5021643;28;20045;-87
2023/12/25 05:56:37;;;;;;;3.13;2.00;;;;;;;16.06;50.95;92776.66;5030710;28;20045;-88
2023/12/25 05:59:04;;;;;;;1.30;0.88;;;;;;;16.06;50.83;92769.22;5041109;28;20037;-88
2023/12/25 06:01:30;;;;;;;4.63;2.72;;;;;;;16.06;50.94;92757.56;5044196;28;20065;-87
2023/12/25 06:03:55;;;;;;;5.25;3.58;;;;;;;16.03;50.80;92764.78;5014496;28;20034;-87
2023/12/25 06:06:21;;;;;;;4.65;2.45;;;;;;;16.04;50.59;92752.63;5011191;28;20108;-89
2023/12/25 06:08:46;;;;;;;3.17;2.05;;;;;;;16.07;50.74;92750.88;5025222;28;20400;-88
2023/12/25 06:11:13;;;;;;;4.47;1.95;;;;;;;16.05;50.63;92747.91;5010264;28;20065;-88
2023/12/25 06:13:38;;;;;;;3.53;1.10;;;;;;;16.00;50.78;92751.47;5037313;28;20041;-89
2023/12/25 06:16:04;;;;;;;3.20;0.90;;;;;;;15.95;50.72;92744.81;5032616;28;20034;-87
2023/12/25 06:18:30;;;;;;;10.00;2.40;;;;;;;15.97;50.69;92741.56;5011659;28;20044;-88
2023/12/25 06:20:55;;;;;;;3.65;2.03;;;;;;;16.05;50.56;92743.22;5041480;28;20045;-87
2023/12/25 06:23:21;;;;;;;2.72;1.90;;;;;;;16.06;50.62;92744.69;5019929;28;20052;-87
2023/12/25 06:25:46;;;;;;;1.40;1.00;;;;;;;16.04;50.84;92751.91;5025103;28;20355;-87
2023/12/25 06:28:12;;;;;;;1.65;1.17;;;;;;;16.00;50.45;92746.75;5031066;28;20067;-87
2023/12/25 06:30:37;;;;;;;3.45;1.63;;;;;;;16.03;50.80;92753.88;5009837;28;20045;-87
2023/12/25 06:33:03;;;;;;;2.08;0.98;;;;;;;16.03;50.75;92756.59;5030845;28;20041;-88
2023/12/25 06:35:28;;;;;;;4.15;1.75;;;;;;;16.07;50.33;92759.06;5027697;28;20086;-88
2023/12/25 06:37:54;;;;;;;3.03;1.50;;;;;;;16.09;50.35;92759.28;5030765;28;20404;-87
2023/12/25 06:40:19;;;;;;;1.27;1.00;;;;;;;16.03;50.88;92753.88;5019634;28;20041;-88
2023/12/25 06:42:45;;;;;;;4.40;2.28;;;;;;;16.08;50.57;92757.81;5048858;28;20052;-87
2023/12/25 06:45:10;;;;;;;1.95;1.17;;;;;;;16.07;50.68;92746.16;5007499;28;20049;-87
2023/12/25 06:47:36;;;;;;;1.85;1.13;;;;;;;16.04;50.46;92762.81;5046459;28;20059;-87
2023/12/25 06:50:01;;;;;;;3.22;1.77;;;;;;;16.08;50.59;92774.91;5044948;28;20037;-88
2023/12/25 06:52:27;;;;;;;1.83;1.35;;;;;;;16.13;50.66;92789.75;5038395;28;21038;-88
2023/12/25 06:54:53;;;;;;;1.90;1.10;;;;;;;16.08;50.69;92787.78;5027684;28;20384;-87
2023/12/25 06:57:19;;;;;;;2.72;1.52;;;;;;;16.10;50.44;92788.78;5046884;28;20048;-87
2023/12/25 06:59:45;;;;;;;3.15;1.58;;;;;;;16.12;50.22;92785.53;5026235;28;20076;-88
2023/12/25 07:02:10;;;;;;;2.38;1.20;;;;;;;16.15;50.11;92781.06;5026511;28;20037;-87
2023/12/25 07:04:36;;;;;;;1.70;1.20;;;;;;;16.12;50.15;92793.72;5024877;28;20055;-86
2023/12/25 07:07:02;;;;;;;3.17;1.70;;;;;;;16.13;50.23;92802.63;5027154;28;20045;-88
2023/12/25 07:09:27;;;;;;;1.98;1.25;;;;;;;16.08;50.62;92793.25;5014575;28;20051;-86
2023/12/25 07:11:53;;;;;;;2.38;1.52;;;;;;;16.01;50.68;92786.41;5030402;28;20052;-87
2023/12/25 07:14:18;;;;;;;2.03;1.40;;;;;;;16.07;50.29;92799.94;5042847;28;20034;-87
2023/12/25 07:16:44;;;;;;;2.83;1.25;;;;;;;16.11;50.26;92797.69;5045300;28;20045;-89
2023/12/25 07:19:09;;;;;;;2.92;0.90;;;;;;;16.05;50.57;92797.72;5029091;28;20065;-87
2023/12/25 07:21:35;;;;;;;2.72;1.40;;;;;;;16.09;50.40;92787.28;5023675;28;20059;-87
2023/12/25 07:24:00;;;;;;;2.22;1.55;;;;;;;16.13;50.31;92789.75;5026672;28;20427;-88
2023/12/25 07:26:25;;;;;;;1.50;1.10;;;;;;;16.05;50.41;92797.00;5005441;28;20045;-89
2023/12/25 07:28:51;;;;;;;1.52;1.02;;;;;;;16.08;50.36;92801.44;4993729;28;20033;-87
2023/12/25 07:31:17;;;;;;;1.45;1.00;;;;;;;16.07;50.16;92797.97;5042458;28;20037;-87
2023/12/25 07:33:42;;;;;;;2.30;1.00;;;;;;;16.08;50.33;92801.44;5029583;28;20042;-87
2023/12/25 07:36:08;;;;;;;2.65;1.20;;;;;;;16.11;50.13;92809.34;5020079;28;20515;-88
2023/12/25 07:38:34;;;;;;;1.17;0.63;;;;;;;16.01;50.36;92808.19;5029484;28;20025;-86
2023/12/25 07:41:00;;;;;;;2.47;1.65;;;;;;;16.11;50.19;92809.34;5033476;28;20051;-88
2023/12/25 07:43:26;;;;;;;3.20;1.55;;;;;;;16.06;50.43;92812.09;5045641;28;20116;-87
2023/12/25 07:45:51;;;;;;;1.90;1.20;;;;;;;16.14;50.50;92806.84;5058516;28;20625;-90
2023/12/25 07:48:17;;;;;;;4.65;2.28;;;;;;;16.09;50.61;92813.81;5027975;28;20076;-88
2023/12/25 07:50:45;;;;;;;4.18;2.47;;;;;;;16.11;50.33;92805.88;5009717;28;20705;-88
2023/12/25 07:53:11;;;;;;;2.25;1.10;;;;;;;16.12;50.44;92812.78;5056388;28;20048;-89
2023/12/25 07:55:38;;;;;;;4.03;2.80;;;;;;;16.11;50.33;92828.41;5045925;28;20037;-88
2023/12/25 07:58:03;;;;;;;4.43;2.72;;;;;;;16.13;50.03;92816.25;5015688;28;20044;-87
2023/12/25 08:00:29;;;;;;;3.88;2.28;;;;;;;16.14;50.29;92823.94;5018068;28;20086;-87
2023/12/25 08:02:54;;;;;;;3.88;2.28;;;;;;;16.11;50.45;92833.13;5012903;28;20037;-87
2023/12/25 08:05:20;;;;;;;2.95;2.17;;;;;;;16.12;50.33;92826.44;5023588;28;20268;-87
2023/12/25 08:07:45;;;;;;;6.70;3.15;;;;;;;16.10;50.41;92835.13;5008718;28;20125;-87
2023/12/25 08:10:11;;;;;;;4.40;1.88;;;;;;;16.08;50.35;92840.34;5024562;28;20041;-87
2023/12/25 08:12:38;;;;;;;2.72;1.85;;;;;;;16.10;50.16;92846.03;5001199;28;20062;-87
2023/12/25 08:15:03;;;;;;;3.90;2.17;;;;;;;16.14;50.16;92851.19;5050575;28;20036;-87
2023/12/25 08:17:29;;;;;;;3.22;1.95;;;;;;;16.14;50.27;92851.19;5024710;28;20060;-88
2023/12/25 08:19:54;;;;;;;1.98;1.40;;;;;;;16.11;50.18;92857.66;5033708;28;20052;-87
2023/12/25 08:22:20;;;;;;;5.78;2.63;;;;;;;16.12;50.26;92848.25;5043841;28;20037;-87
2023/12/25 08:24:45;;;;;;;4.03;2.22;;;;;;;16.11;50.29;92861.13;5032204;28;20470;-87
2023/12/25 08:27:11;;;;;;;3.95;2.13;;;;;;;16.10;50.03;92846.03;5037181;28;20060;-87
2023/12/25 08:29:37;;;;;;;4.88;2.15;;;;;;;16.13;50.21;92855.19;5009316;28;20041;-87
2023/12/25 08:32:02;;;;;;;2.00;1.50;;;;;;;16.13;50.21;92868.81;5040431;28;20056;-87
2023/12/25 08:34:28;;;;;;;4.22;2.30;;;;;;;16.15;49.93;92860.88;5045032;28;20549;-87
2023/12/25 08:36:53;;;;;;;4.50;2.67;;;;;;;16.13;50.05;92873.53;5042779;28;20037;-87
2023/12/25 08:39:19;;;;;;;3.95;1.95;;;;;;;16.17;50.09;92874.00;5009363;28;20042;-88
2023/12/25 08:41:45;;;;;;;4.65;2.42;;;;;;;16.11;50.38;92882.94;4992669;28;20072;-87
2023/12/25 08:44:10;;;;;;;1.45;1.20;;;;;;;16.08;50.41;92889.41;5026984;28;20069;-88
2023/12/25 08:46:36;;;;;;;0.63;0.60;;;;;;;16.03;50.43;92889.44;5046798;28;20077;-88
2023/12/25 08:49:01;;;;;;;2.55;1.65;;;;;;;16.10;50.10;92880.72;5010208;28;20052;-88
2023/12/25 08:51:27;;;;;;;1.45;0.98;;;;;;;16.11;50.07;92890.38;5037259;28;20037;-87
2023/12/25 08:53:52;;;;;;;2.08;1.33;;;;;;;16.12;50.15;92886.41;5027562;28;20046;-87
2023/12/25 08:56:24;;;;;;;2.33;1.60;;;;;;;16.13;50.06;92887.91;5049705;28;20037;-89
2023/12/25 08:58:50;;;;;;;2.47;1.85;;;;;;;16.18;50.35;92880.94;5045987;28;20037;-92
2023/12/25 09:01:15;;;;;;;2.75;1.73;;;;;;;16.14;50.07;92894.09;5037925;28;20033;-88
2023/12/25 09:03:41;;;;;;;1.98;1.15;;;;;;;16.15;50.00;92895.56;5045400;28;20479;-87
2023/12/25 09:06:06;;;;;;;2.45;1.40;;;;;;;16.20;49.94;92886.63;5028115;28;20037;-88
2023/12/25 09:08:32;;;;;;;2.53;1.70;;;;;;;16.14;50.18;92888.63;5031358;28;20419;-88
2023/12/25 09:10:58;;;;;;;2.33;1.33;;;;;;;16.14;50.17;92900.28;5048637;28;20091;-88
2023/12/25 09:13:24;;;;;;;2.08;1.25;;;;;;;16.16;50.30;92891.59;5032353;28;20044;-87
2023/12/25 09:15:50;;;;;;;2.25;1.40;;;;;;;16.17;49.83;92896.53;5028516;28;20049;-87
2023/12/25 09:18:15;;;;;;;2.35;1.13;;;;;;;16.16;50.07;92889.59;5025478;28;20048;-87
2023/12/25 09:20:41;;;;;;;2.75;1.20;;;;;;;16.15;50.17;92887.38;5053220;28;20689;-87
2023/12/25 09:23:06;;;;;;;1.38;0.80;;;;;;;16.20;50.08;92892.81;5048530;28;20450;-88
2023/12/25 09:25:32;;;;;;;3.17;1.67;;;;;;;16.15;50.17;92896.31;5045107;28;20360;-89
2023/12/25 09:27:57;;;;;;;3.05;1.10;;;;;;;16.19;50.24;92894.06;5048227;28;20068;-87
2023/12/25 09:30:23;;;;;;;1.80;1.20;;;;;;;16.13;50.08;92898.81;5048149;28;20163;-89
2023/12/25 09:32:48;;;;;;;3.05;1.20;;;;;;;16.17;50.06;92901.25;5011368;28;20041;-88
2023/12/25 09:35:15;;;;;;;2.85;1.27;;;;;;;16.18;50.41;92900.00;5014400;28;20060;-88
2023/12/25 09:37:41;;;;;;;2.90;1.50;;;;;;;16.15;50.11;92909.94;5031284;28;20049;-88
2023/12/25 09:40:07;;;;;;;3.22;2.05;;;;;;;16.14;49.74;92905.75;5030686;28;20119;-88
2023/12/25 09:42:32;;;;;;;1.85;1.00;;;;;;;16.10;50.25;92919.66;5012378;28;20044;-87
2023/12/25 09:44:58;;;;;;;4.07;2.50;;;;;;;16.17;50.06;92912.16;5031220;28;20041;-88
2023/12/25 09:47:23;;;;;;;2.60;1.70;;;;;;;16.15;49.97;92909.22;5030922;28;20391;-87
2023/12/25 09:49:49;;;;;;;5.50;2.80;;;;;;;16.19;50.05;92906.94;5043463;28;20441;-87
2023/12/25 09:52:15;;;;;;;7.35;3.03;;;;;;;16.15;50.21;92915.41;5020584;28;20036;-88
2023/12/25 09:54:41;;;;;;;3.03;2.15;;;;;;;16.18;49.99;92919.09;5031918;28;20041;-88
2023/12/25 09:57:07;;;;;;;5.13;2.85;;;;;;;16.12;50.46;92908.22;5027347;28;20045;-87
2023/12/25 09:59:32;;;;;;;2.45;1.77;;;;;;;16.13;50.24;92906.25;5024556;28;20037;-90
2023/12/25 10:01:58;;;;;;;3.00;1.88;;;;;;;16.14;50.26;92891.38;5033449;28;20041;-88
2023/12/25 10:04:24;;;;;;;3.55;2.50;;;;;;;16.13;50.26;92904.25;5014723;28;20627;-87
2023/12/25 10:06:50;;;;;;;6.25;2.88;;;;;;;16.14;50.05;92892.09;5022752;28;20068;-87
2023/12/25 10:09:16;;;;;;;3.50;2.45;;;;;;;16.15;49.96;92907.22;5023464;28;20465;-88
2023/12/25 10:11:41;;;;;;;4.78;2.42;;;;;;;16.17;50.17;92904.00;5040967;28;20076;-88
2023/12/25 10:14:07;;;;;;;3.22;2.22;;;;;;;16.14;50.22;92908.47;5022343;28;20075;-88
2023/12/25 10:16:32;;;;;;;3.42;1.83;;;;;;;16.17;50.27;92912.91;5016858;28;20045;-88
2023/12/25 10:18:58;;;;;;;2.50;1.80;;;;;;;16.18;50.28;92905.47;5034102;28;20072;-87
2023/12/25 10:21:23;;;;;;;5.38;2.30;;;;;;;16.20;50.34;92900.25;5023740;28;20106;-88
2023/12/25 10:23:49;;;;;;;2.80;1.73;;;;;;;16.15;49.94;92895.56;5020714;28;20044;-87
2023/12/25 10:26:25;;;;;;;2.40;1.75;;;;;;;16.20;50.27;92881.16;5020147;28;20530;-87
2023/12/25 10:28:51;;;;;;;3.63;1.70;;;;;;;16.15;50.07;92865.56;5016075;28;20086;-86
2023/12/25 10:31:16;;;;;;;4.60;2.88;;;;;;;16.14;50.25;92858.66;5028603;28;20033;-87
2023/12/25 10:33:41;;;;;;;3.22;1.95;;;;;;;16.16;49.89;92877.97;5017443;28;20520;-89
2023/12/25 10:36:09;;;;;;;1.63;1.23;;;;;;;16.13;50.24;92881.69;5032678;28;20575;-88
2023/12/25 10:38:35;;;;;;;2.75;1.77;;;;;;;16.16;50.25;92877.97;5023902;28;20036;-87
2023/12/25 10:41:31;;;;;;;3.03;1.80;;;;;;;16.15;49.96;92887.38;5032314;28;20041;-88
2023/12/25 10:43:58;;;;;;;2.05;1.20;;;;;;;16.17;50.01;92879.44;5012065;28;20045;-91
2023/12/25 10:46:27;;;;;;;3.33;1.98;;;;;;;16.19;49.85;92869.50;5012010;28;20488;-87
2023/12/25 10:48:55;;;;;;;3.67;1.60;;;;;;;16.13;49.99;92873.53;5034297;28;20072;-89
2023/12/25 10:51:25;;;;;;;3.63;2.08;;;;;;;16.14;50.17;92885.91;5048617;28;20091;-88
2023/12/25 10:53:51;;;;;;;2.33;1.40;;;;;;;16.16;50.13;92875.97;5035158;28;20124;-87
2023/12/25 10:56:19;;;;;;;2.72;1.23;;;;;;;16.16;50.29;92872.50;4995876;28;20050;-88
2023/12/25 10:58:44;;;;;;;1.90;1.30;;;;;;;16.11;50.17;92868.56;5030424;28;20087;-89
2023/12/25 11:01:10;;;;;;;1.35;1.08;;;;;;;16.17;50.26;92861.09;5020047;28;20046;-88
2023/12/25 11:03:35;;;;;;;2.75;1.88;;;;;;;16.18;50.21;92853.66;5010569;28;20049;-88
2023/12/25 11:06:04;;;;;;;3.10;1.63;;;;;;;16.18;50.46;92854.41;5051310;28;20056;-87
2023/12/25 11:08:29;;;;;;;1.08;0.90;;;;;;;16.19;50.07;92850.41;5028548;28;20071;-87
2023/12/25 11:10:55;;;;;;;1.48;1.10;;;;;;;16.18;50.18;92845.47;5010215;28;20037;-88
2023/12/25 11:13:21;;;;;;;1.80;0.82;;;;;;;16.14;50.21;92853.19;5025913;28;20037;-89
2023/12/25 11:15:46;;;;;;;3.78;2.08;;;;;;;16.20;50.20;92851.91;5025788;28;20045;-87
2023/12/25 11:18:12;;;;;;;3.38;1.52;;;;;;;16.17;50.00;92852.91;5022877;28;20046;-88
2023/12/25 11:20:40;;;;;;;1.52;1.10;;;;;;;16.24;49.84;92859.81;5047222;28;20053;-87
2023/12/25 11:23:05;;;;;;;1.23;0.70;;;;;;;16.20;49.86;92849.19;5025355;28;20056;-88
2023/12/25 11:25:33;;;;;;;1.38;1.10;;;;;;;16.18;49.91;92846.22;5011303;28;20448;-87
2023/12/25 11:27:59;;;;;;;3.58;1.80;;;;;;;16.24;49.83;92852.34;5047627;28;20079;-88